Galen, Montana
Current Conditions -  °F | °C
As of 1:53 AM on Saturday 20 Dec 2014 (Local Time) from KBTM Reporting Station
Clear Clear  
Wind Chill: 24°   Ceiling: Unl
Heat Index: 29°   Visibility: 10mi
Dew Point: 19°   Wind: 5mph
Humidity: 67%   Direction: 110°ESE
Pressure: 29.96"   Gusts: NA
Location:  46.357°N, 112.771°W
Report Text: KBTM 200853Z AUTO 11004KT 10SM CLR M02/M07 A2996 RMK AO2 SLP169 60000 T10171072 50001
Loading
Personal Weather Stations






























Interactive Weather Map New forecast layout! Learn more

10-Day Weather Forecast

Advertisements
Track Severe Weather on mobile